sensor_id;sensor_type;location;lat;lon;timestamp;P1;durP1;ratioP1;P2;durP2;ratioP2
22223;SDS011;11281;52.194;21.006;2022-12-29T00:01:17;13.57;;;5.50;;
22223;SDS011;11281;52.194;21.006;2022-12-29T00:05:39;9.35;;;5.97;;
22223;SDS011;11281;52.194;21.006;2022-12-29T00:10:00;9.18;;;5.20;;
22223;SDS011;11281;52.194;21.006;2022-12-29T00:14:22;9.73;;;5.35;;
22223;SDS011;11281;52.194;21.006;2022-12-29T00:19:02;12.02;;;5.65;;
22223;SDS011;11281;52.194;21.006;2022-12-29T00:23:25;8.50;;;5.53;;
22223;SDS011;11281;52.194;21.006;2022-12-29T00:28:13;8.07;;;4.87;;
22223;SDS011;11281;52.194;21.006;2022-12-29T00:32:53;10.63;;;4.97;;
22223;SDS011;11281;52.194;21.006;2022-12-29T00:37:34;10.55;;;5.50;;
22223;SDS011;11281;52.194;21.006;2022-12-29T00:42:22;9.05;;;5.10;;
22223;SDS011;11281;52.194;21.006;2022-12-29T00:47:02;10.48;;;5.88;;
22223;SDS011;11281;52.194;21.006;2022-12-29T00:51:25;9.77;;;4.70;;
22223;SDS011;11281;52.194;21.006;2022-12-29T00:55:46;9.18;;;5.10;;
22223;SDS011;11281;52.194;21.006;2022-12-29T01:00:08;9.45;;;5.13;;
22223;SDS011;11281;52.194;21.006;2022-12-29T01:04:31;7.10;;;4.90;;
22223;SDS011;11281;52.194;21.006;2022-12-29T01:08:53;12.75;;;4.75;;
22223;SDS011;11281;52.194;21.006;2022-12-29T01:13:33;7.05;;;4.60;;
22223;SDS011;11281;52.194;21.006;2022-12-29T01:17:56;8.20;;;4.65;;
22223;SDS011;11281;52.194;21.006;2022-12-29T01:22:18;11.05;;;4.95;;
22223;SDS011;11281;52.194;21.006;2022-12-29T01:26:40;7.47;;;4.70;;
22223;SDS011;11281;52.194;21.006;2022-12-29T01:31:01;10.05;;;4.47;;
22223;SDS011;11281;52.194;21.006;2022-12-29T01:35:23;7.13;;;4.25;;
22223;SDS011;11281;52.194;21.006;2022-12-29T01:39:45;8.55;;;4.28;;
22223;SDS011;11281;52.194;21.006;2022-12-29T01:49:16;8.52;;;4.47;;
22223;SDS011;11281;52.194;21.006;2022-12-29T01:53:40;8.55;;;5.53;;
22223;SDS011;11281;52.194;21.006;2022-12-29T01:58:04;8.63;;;4.93;;
22223;SDS011;11281;52.194;21.006;2022-12-29T02:02:27;7.45;;;4.43;;
22223;SDS011;11281;52.194;21.006;2022-12-29T02:06:57;6.88;;;4.40;;
22223;SDS011;11281;52.194;21.006;2022-12-29T02:11:25;7.18;;;4.30;;
22223;SDS011;11281;52.194;21.006;2022-12-29T02:15:53;5.50;;;3.88;;
22223;SDS011;11281;52.194;21.006;2022-12-29T02:25:41;8.00;;;3.97;;
22223;SDS011;11281;52.194;21.006;2022-12-29T02:35:25;8.38;;;3.60;;
22223;SDS011;11281;52.194;21.006;2022-12-29T02:40:17;8.13;;;4.13;;
22223;SDS011;11281;52.194;21.006;2022-12-29T02:49:22;6.95;;;3.95;;
22223;SDS011;11281;52.194;21.006;2022-12-29T02:53:55;6.40;;;4.40;;
22223;SDS011;11281;52.194;21.006;2022-12-29T02:58:36;6.40;;;3.97;;
22223;SDS011;11281;52.194;21.006;2022-12-29T03:23:00;8.55;;;4.25;;
22223;SDS011;11281;52.194;21.006;2022-12-29T03:27:58;7.32;;;4.15;;
22223;SDS011;11281;52.194;21.006;2022-12-29T03:32:15;8.43;;;3.80;;
22223;SDS011;11281;52.194;21.006;2022-12-29T03:36:39;8.02;;;4.20;;
22223;SDS011;11281;52.194;21.006;2022-12-29T03:41:19;5.18;;;3.85;;
22223;SDS011;11281;52.194;21.006;2022-12-29T03:45:47;12.40;;;4.57;;
22223;SDS011;11281;52.194;21.006;2022-12-29T03:50:11;6.15;;;3.95;;
22223;SDS011;11281;52.194;21.006;2022-12-29T03:54:34;5.28;;;3.78;;
22223;SDS011;11281;52.194;21.006;2022-12-29T03:58:55;6.43;;;3.63;;
22223;SDS011;11281;52.194;21.006;2022-12-29T04:03:17;6.80;;;3.90;;
22223;SDS011;11281;52.194;21.006;2022-12-29T04:07:39;6.80;;;4.10;;
22223;SDS011;11281;52.194;21.006;2022-12-29T04:12:00;7.30;;;3.42;;
22223;SDS011;11281;52.194;21.006;2022-12-29T04:16:22;5.32;;;3.55;;
22223;SDS011;11281;52.194;21.006;2022-12-29T04:20:44;4.85;;;4.13;;
22223;SDS011;11281;52.194;21.006;2022-12-29T04:25:21;7.00;;;4.28;;
22223;SDS011;11281;52.194;21.006;2022-12-29T04:29:42;6.93;;;3.78;;
22223;SDS011;11281;52.194;21.006;2022-12-29T04:34:04;5.38;;;3.42;;
22223;SDS011;11281;52.194;21.006;2022-12-29T04:38:26;7.22;;;3.92;;
22223;SDS011;11281;52.194;21.006;2022-12-29T04:42:48;4.35;;;3.58;;
22223;SDS011;11281;52.194;21.006;2022-12-29T04:47:11;7.68;;;3.65;;
22223;SDS011;11281;52.194;21.006;2022-12-29T04:51:32;6.60;;;4.22;;
22223;SDS011;11281;52.194;21.006;2022-12-29T04:55:54;6.40;;;3.80;;
22223;SDS011;11281;52.194;21.006;2022-12-29T05:00:16;6.10;;;3.78;;
22223;SDS011;11281;52.194;21.006;2022-12-29T05:04:38;7.13;;;3.78;;
22223;SDS011;11281;52.194;21.006;2022-12-29T05:08:59;5.80;;;4.03;;
22223;SDS011;11281;52.194;21.006;2022-12-29T05:13:21;4.65;;;3.42;;
22223;SDS011;11281;52.194;21.006;2022-12-29T05:17:43;7.60;;;3.88;;
22223;SDS011;11281;52.194;21.006;2022-12-29T05:22:04;4.60;;;3.58;;
22223;SDS011;11281;52.194;21.006;2022-12-29T05:26:26;6.05;;;4.93;;
22223;SDS011;11281;52.194;21.006;2022-12-29T05:30:49;5.97;;;4.13;;
22223;SDS011;11281;52.194;21.006;2022-12-29T05:35:11;9.40;;;4.90;;
22223;SDS011;11281;52.194;21.006;2022-12-29T05:39:33;7.57;;;4.47;;
22223;SDS011;11281;52.194;21.006;2022-12-29T05:43:55;9.52;;;4.50;;
22223;SDS011;11281;52.194;21.006;2022-12-29T05:48:17;8.18;;;4.53;;
22223;SDS011;11281;52.194;21.006;2022-12-29T05:52:38;11.85;;;4.65;;
22223;SDS011;11281;52.194;21.006;2022-12-29T05:57:00;10.00;;;5.15;;
22223;SDS011;11281;52.194;21.006;2022-12-29T06:01:22;8.85;;;5.07;;
22223;SDS011;11281;52.194;21.006;2022-12-29T06:05:44;9.52;;;4.65;;
22223;SDS011;11281;52.194;21.006;2022-12-29T06:10:07;5.65;;;4.53;;
22223;SDS011;11281;52.194;21.006;2022-12-29T06:14:29;11.73;;;4.72;;
22223;SDS011;11281;52.194;21.006;2022-12-29T06:18:50;12.35;;;6.30;;
22223;SDS011;11281;52.194;21.006;2022-12-29T06:23:12;10.38;;;5.55;;
22223;SDS011;11281;52.194;21.006;2022-12-29T06:27:34;9.43;;;5.20;;
22223;SDS011;11281;52.194;21.006;2022-12-29T06:31:55;11.50;;;6.07;;
22223;SDS011;11281;52.194;21.006;2022-12-29T06:36:18;10.73;;;5.40;;
22223;SDS011;11281;52.194;21.006;2022-12-29T06:40:41;9.93;;;6.22;;
22223;SDS011;11281;52.194;21.006;2022-12-29T06:45:05;9.70;;;5.40;;
22223;SDS011;11281;52.194;21.006;2022-12-29T06:49:28;8.48;;;4.40;;
22223;SDS011;11281;52.194;21.006;2022-12-29T06:53:49;9.15;;;5.50;;
22223;SDS011;11281;52.194;21.006;2022-12-29T06:58:11;12.02;;;5.20;;
22223;SDS011;11281;52.194;21.006;2022-12-29T07:02:33;9.63;;;4.95;;
22223;SDS011;11281;52.194;21.006;2022-12-29T07:06:55;15.93;;;6.07;;
22223;SDS011;11281;52.194;21.006;2022-12-29T07:11:16;8.18;;;4.68;;
22223;SDS011;11281;52.194;21.006;2022-12-29T07:15:38;10.95;;;5.47;;
22223;SDS011;11281;52.194;21.006;2022-12-29T07:20:00;8.18;;;5.47;;
22223;SDS011;11281;52.194;21.006;2022-12-29T07:24:21;9.18;;;5.28;;
22223;SDS011;11281;52.194;21.006;2022-12-29T07:28:43;9.10;;;4.70;;
22223;SDS011;11281;52.194;21.006;2022-12-29T07:33:05;9.60;;;4.50;;
22223;SDS011;11281;52.194;21.006;2022-12-29T07:37:27;7.93;;;4.72;;
22223;SDS011;11281;52.194;21.006;2022-12-29T07:41:48;8.65;;;5.10;;
22223;SDS011;11281;52.194;21.006;2022-12-29T07:46:10;8.45;;;5.35;;
22223;SDS011;11281;52.194;21.006;2022-12-29T07:50:32;7.30;;;4.82;;
22223;SDS011;11281;52.194;21.006;2022-12-29T07:54:57;13.20;;;5.53;;
22223;SDS011;11281;52.194;21.006;2022-12-29T07:59:19;8.38;;;4.53;;
22223;SDS011;11281;52.194;21.006;2022-12-29T08:03:40;13.32;;;4.97;;
22223;SDS011;11281;52.194;21.006;2022-12-29T08:08:02;10.57;;;5.10;;
22223;SDS011;11281;52.194;21.006;2022-12-29T08:12:24;8.70;;;5.00;;
22223;SDS011;11281;52.194;21.006;2022-12-29T08:16:46;9.48;;;4.38;;
22223;SDS011;11281;52.194;21.006;2022-12-29T08:21:08;10.15;;;4.35;;
22223;SDS011;11281;52.194;21.006;2022-12-29T08:25:30;9.90;;;4.75;;
22223;SDS011;11281;52.194;21.006;2022-12-29T08:29:51;8.55;;;4.03;;
22223;SDS011;11281;52.194;21.006;2022-12-29T08:34:13;8.07;;;4.15;;
22223;SDS011;11281;52.194;21.006;2022-12-29T08:38:35;7.20;;;4.40;;
22223;SDS011;11281;52.194;21.006;2022-12-29T08:42:56;10.32;;;4.70;;
22223;SDS011;11281;52.194;21.006;2022-12-29T08:47:18;7.88;;;4.53;;
22223;SDS011;11281;52.194;21.006;2022-12-29T08:51:40;10.85;;;5.32;;
22223;SDS011;11281;52.194;21.006;2022-12-29T08:56:02;10.13;;;4.85;;
22223;SDS011;11281;52.194;21.006;2022-12-29T09:00:24;9.35;;;5.35;;
22223;SDS011;11281;52.194;21.006;2022-12-29T09:04:46;8.13;;;4.18;;
22223;SDS011;11281;52.194;21.006;2022-12-29T09:09:08;8.52;;;4.75;;
22223;SDS011;11281;52.194;21.006;2022-12-29T09:13:29;13.98;;;4.68;;
22223;SDS011;11281;52.194;21.006;2022-12-29T09:17:51;7.55;;;4.18;;
22223;SDS011;11281;52.194;21.006;2022-12-29T09:22:13;7.45;;;4.05;;
22223;SDS011;11281;52.194;21.006;2022-12-29T09:26:35;6.40;;;4.15;;
22223;SDS011;11281;52.194;21.006;2022-12-29T09:30:57;7.00;;;4.20;;
22223;SDS011;11281;52.194;21.006;2022-12-29T09:35:19;5.85;;;4.03;;
22223;SDS011;11281;52.194;21.006;2022-12-29T09:39:40;8.23;;;4.35;;
22223;SDS011;11281;52.194;21.006;2022-12-29T09:54:02;8.70;;;4.30;;
22223;SDS011;11281;52.194;21.006;2022-12-29T10:03:16;8.57;;;4.00;;
22223;SDS011;11281;52.194;21.006;2022-12-29T10:07:45;7.28;;;3.67;;
22223;SDS011;11281;52.194;21.006;2022-12-29T10:26:52;7.85;;;4.13;;
22223;SDS011;11281;52.194;21.006;2022-12-29T10:31:19;7.30;;;4.18;;
22223;SDS011;11281;52.194;21.006;2022-12-29T10:35:46;9.07;;;4.22;;
22223;SDS011;11281;52.194;21.006;2022-12-29T10:40:14;7.95;;;4.35;;
22223;SDS011;11281;52.194;21.006;2022-12-29T10:45:22;7.78;;;3.58;;
22223;SDS011;11281;52.194;21.006;2022-12-29T10:54:16;6.68;;;4.18;;
22223;SDS011;11281;52.194;21.006;2022-12-29T10:58:47;8.55;;;3.60;;
22223;SDS011;11281;52.194;21.006;2022-12-29T11:08:02;7.30;;;4.38;;
22223;SDS011;11281;52.194;21.006;2022-12-29T11:12:30;7.10;;;4.20;;
22223;SDS011;11281;52.194;21.006;2022-12-29T11:16:59;6.10;;;3.78;;
22223;SDS011;11281;52.194;21.006;2022-12-29T11:21:30;8.18;;;3.70;;
22223;SDS011;11281;52.194;21.006;2022-12-29T11:30:36;7.72;;;4.53;;
22223;SDS011;11281;52.194;21.006;2022-12-29T11:34:58;6.65;;;4.15;;
22223;SDS011;11281;52.194;21.006;2022-12-29T11:39:29;8.00;;;4.72;;
22223;SDS011;11281;52.194;21.006;2022-12-29T11:44:02;12.48;;;4.60;;
22223;SDS011;11281;52.194;21.006;2022-12-29T11:48:28;8.43;;;4.22;;
22223;SDS011;11281;52.194;21.006;2022-12-29T11:57:38;6.05;;;4.03;;
22223;SDS011;11281;52.194;21.006;2022-12-29T12:07:26;8.77;;;4.97;;
22223;SDS011;11281;52.194;21.006;2022-12-29T12:12:02;6.25;;;3.65;;
22223;SDS011;11281;52.194;21.006;2022-12-29T12:16:31;8.70;;;5.03;;
22223;SDS011;11281;52.194;21.006;2022-12-29T12:25:57;7.75;;;4.90;;
22223;SDS011;11281;52.194;21.006;2022-12-29T12:30:37;9.90;;;3.83;;
22223;SDS011;11281;52.194;21.006;2022-12-29T12:35:07;10.27;;;5.22;;
22223;SDS011;11281;52.194;21.006;2022-12-29T12:39:46;11.82;;;4.72;;
22223;SDS011;11281;52.194;21.006;2022-12-29T12:54:22;6.78;;;4.25;;
22223;SDS011;11281;52.194;21.006;2022-12-29T12:59:15;9.10;;;4.68;;
22223;SDS011;11281;52.194;21.006;2022-12-29T13:09:41;7.88;;;4.20;;
22223;SDS011;11281;52.194;21.006;2022-12-29T13:14:42;8.50;;;4.10;;
22223;SDS011;11281;52.194;21.006;2022-12-29T13:19:39;7.45;;;3.42;;
22223;SDS011;11281;52.194;21.006;2022-12-29T13:24:15;6.30;;;4.50;;
22223;SDS011;11281;52.194;21.006;2022-12-29T13:38:46;8.90;;;3.95;;
22223;SDS011;11281;52.194;21.006;2022-12-29T13:43:23;8.27;;;4.32;;
22223;SDS011;11281;52.194;21.006;2022-12-29T13:47:48;6.35;;;4.20;;
22223;SDS011;11281;52.194;21.006;2022-12-29T13:52:21;8.77;;;3.80;;
22223;SDS011;11281;52.194;21.006;2022-12-29T13:56:56;6.40;;;3.72;;
22223;SDS011;11281;52.194;21.006;2022-12-29T14:01:56;6.57;;;4.20;;
22223;SDS011;11281;52.194;21.006;2022-12-29T14:06:34;5.20;;;3.50;;
22223;SDS011;11281;52.194;21.006;2022-12-29T14:11:05;6.05;;;4.13;;
22223;SDS011;11281;52.194;21.006;2022-12-29T14:15:31;9.27;;;4.28;;
22223;SDS011;11281;52.194;21.006;2022-12-29T14:19:54;9.15;;;4.32;;
22223;SDS011;11281;52.194;21.006;2022-12-29T14:24:50;11.32;;;4.28;;
22223;SDS011;11281;52.194;21.006;2022-12-29T14:29:15;10.35;;;4.75;;
22223;SDS011;11281;52.194;21.006;2022-12-29T14:38:32;6.47;;;3.97;;
22223;SDS011;11281;52.194;21.006;2022-12-29T14:42:54;6.00;;;3.92;;
22223;SDS011;11281;52.194;21.006;2022-12-29T14:47:22;6.65;;;4.40;;
22223;SDS011;11281;52.194;21.006;2022-12-29T14:51:53;7.75;;;4.30;;
22223;SDS011;11281;52.194;21.006;2022-12-29T14:56:28;8.07;;;5.03;;
22223;SDS011;11281;52.194;21.006;2022-12-29T15:00:52;8.80;;;5.60;;
22223;SDS011;11281;52.194;21.006;2022-12-29T15:05:31;10.65;;;4.90;;
22223;SDS011;11281;52.194;21.006;2022-12-29T15:10:13;11.43;;;4.93;;
22223;SDS011;11281;52.194;21.006;2022-12-29T15:14:39;8.27;;;4.63;;
22223;SDS011;11281;52.194;21.006;2022-12-29T15:19:23;10.00;;;5.03;;
22223;SDS011;11281;52.194;21.006;2022-12-29T15:23:47;9.52;;;5.00;;
22223;SDS011;11281;52.194;21.006;2022-12-29T15:28:10;8.07;;;4.53;;
22223;SDS011;11281;52.194;21.006;2022-12-29T15:32:42;9.95;;;5.20;;
22223;SDS011;11281;52.194;21.006;2022-12-29T15:37:06;11.38;;;5.40;;
22223;SDS011;11281;52.194;21.006;2022-12-29T15:41:36;9.32;;;5.43;;
22223;SDS011;11281;52.194;21.006;2022-12-29T15:46:24;8.60;;;4.88;;
22223;SDS011;11281;52.194;21.006;2022-12-29T15:50:47;9.30;;;5.63;;
22223;SDS011;11281;52.194;21.006;2022-12-29T15:59:59;10.55;;;5.60;;
22223;SDS011;11281;52.194;21.006;2022-12-29T16:04:21;8.95;;;5.22;;
22223;SDS011;11281;52.194;21.006;2022-12-29T16:08:46;9.25;;;5.63;;
22223;SDS011;11281;52.194;21.006;2022-12-29T16:13:25;12.65;;;5.95;;
22223;SDS011;11281;52.194;21.006;2022-12-29T16:18:00;10.57;;;5.68;;
22223;SDS011;11281;52.194;21.006;2022-12-29T16:26:56;9.05;;;5.35;;
22223;SDS011;11281;52.194;21.006;2022-12-29T16:31:33;12.02;;;5.80;;
22223;SDS011;11281;52.194;21.006;2022-12-29T16:41:29;11.38;;;5.85;;
22223;SDS011;11281;52.194;21.006;2022-12-29T16:50:16;10.73;;;5.65;;
22223;SDS011;11281;52.194;21.006;2022-12-29T16:54:42;12.13;;;5.63;;
22223;SDS011;11281;52.194;21.006;2022-12-29T16:59:23;12.50;;;5.38;;
22223;SDS011;11281;52.194;21.006;2022-12-29T17:04:08;10.95;;;6.25;;
22223;SDS011;11281;52.194;21.006;2022-12-29T17:08:39;9.88;;;6.82;;
22223;SDS011;11281;52.194;21.006;2022-12-29T17:13:02;22.00;;;14.02;;
22223;SDS011;11281;52.194;21.006;2022-12-29T17:17:34;11.57;;;7.25;;
22223;SDS011;11281;52.194;21.006;2022-12-29T17:22:00;12.63;;;9.07;;
22223;SDS011;11281;52.194;21.006;2022-12-29T17:26:22;11.55;;;6.90;;
22223;SDS011;11281;52.194;21.006;2022-12-29T17:30:44;8.90;;;5.78;;
22223;SDS011;11281;52.194;21.006;2022-12-29T17:35:12;12.85;;;6.72;;
22223;SDS011;11281;52.194;21.006;2022-12-29T17:39:35;11.10;;;6.15;;
22223;SDS011;11281;52.194;21.006;2022-12-29T17:43:57;9.18;;;5.32;;
22223;SDS011;11281;52.194;21.006;2022-12-29T17:48:19;11.82;;;5.47;;
22223;SDS011;11281;52.194;21.006;2022-12-29T17:52:42;12.45;;;6.32;;
22223;SDS011;11281;52.194;21.006;2022-12-29T17:57:17;11.60;;;5.68;;
22223;SDS011;11281;52.194;21.006;2022-12-29T18:01:41;7.32;;;5.55;;
22223;SDS011;11281;52.194;21.006;2022-12-29T18:06:04;10.38;;;5.72;;
22223;SDS011;11281;52.194;21.006;2022-12-29T18:10:28;12.13;;;5.35;;
22223;SDS011;11281;52.194;21.006;2022-12-29T18:14:51;13.60;;;8.70;;
22223;SDS011;11281;52.194;21.006;2022-12-29T18:19:13;9.90;;;6.20;;
22223;SDS011;11281;52.194;21.006;2022-12-29T18:23:35;12.50;;;6.13;;
22223;SDS011;11281;52.194;21.006;2022-12-29T18:27:56;13.20;;;5.80;;
22223;SDS011;11281;52.194;21.006;2022-12-29T18:32:18;11.55;;;5.78;;
22223;SDS011;11281;52.194;21.006;2022-12-29T18:36:41;12.02;;;6.22;;
22223;SDS011;11281;52.194;21.006;2022-12-29T18:41:03;17.17;;;7.70;;
22223;SDS011;11281;52.194;21.006;2022-12-29T18:45:25;14.23;;;7.72;;
22223;SDS011;11281;52.194;21.006;2022-12-29T18:49:47;13.93;;;7.38;;
22223;SDS011;11281;52.194;21.006;2022-12-29T18:54:21;14.40;;;7.00;;
22223;SDS011;11281;52.194;21.006;2022-12-29T18:58:50;14.35;;;6.20;;
22223;SDS011;11281;52.194;21.006;2022-12-29T19:03:14;12.35;;;6.47;;
22223;SDS011;11281;52.194;21.006;2022-12-29T19:07:37;9.63;;;6.30;;
22223;SDS011;11281;52.194;21.006;2022-12-29T19:11:59;12.40;;;5.90;;
22223;SDS011;11281;52.194;21.006;2022-12-29T19:16:21;12.38;;;6.38;;
22223;SDS011;11281;52.194;21.006;2022-12-29T19:20:45;13.25;;;6.95;;
22223;SDS011;11281;52.194;21.006;2022-12-29T19:25:08;11.35;;;6.35;;
22223;SDS011;11281;52.194;21.006;2022-12-29T19:29:30;12.38;;;6.75;;
22223;SDS011;11281;52.194;21.006;2022-12-29T19:33:52;10.93;;;6.22;;
22223;SDS011;11281;52.194;21.006;2022-12-29T19:38:14;12.65;;;6.47;;
22223;SDS011;11281;52.194;21.006;2022-12-29T19:42:36;11.75;;;6.78;;
22223;SDS011;11281;52.194;21.006;2022-12-29T19:46:58;14.35;;;7.10;;
22223;SDS011;11281;52.194;21.006;2022-12-29T19:51:19;14.65;;;7.32;;
22223;SDS011;11281;52.194;21.006;2022-12-29T19:55:44;13.50;;;6.68;;
22223;SDS011;11281;52.194;21.006;2022-12-29T20:00:08;14.13;;;6.90;;
22223;SDS011;11281;52.194;21.006;2022-12-29T20:04:31;17.65;;;6.57;;
22223;SDS011;11281;52.194;21.006;2022-12-29T20:08:52;12.15;;;6.55;;
22223;SDS011;11281;52.194;21.006;2022-12-29T20:13:15;12.00;;;6.47;;
22223;SDS011;11281;52.194;21.006;2022-12-29T20:17:39;14.77;;;6.88;;
22223;SDS011;11281;52.194;21.006;2022-12-29T20:22:02;15.50;;;6.97;;
22223;SDS011;11281;52.194;21.006;2022-12-29T20:26:27;13.63;;;7.43;;
22223;SDS011;11281;52.194;21.006;2022-12-29T20:30:57;12.45;;;7.03;;
22223;SDS011;11281;52.194;21.006;2022-12-29T20:35:35;15.05;;;6.90;;
22223;SDS011;11281;52.194;21.006;2022-12-29T20:39:57;16.25;;;7.82;;
22223;SDS011;11281;52.194;21.006;2022-12-29T20:44:19;16.33;;;7.65;;
22223;SDS011;11281;52.194;21.006;2022-12-29T20:48:42;13.23;;;6.65;;
22223;SDS011;11281;52.194;21.006;2022-12-29T20:53:04;10.77;;;6.90;;
22223;SDS011;11281;52.194;21.006;2022-12-29T20:57:26;13.68;;;6.70;;
22223;SDS011;11281;52.194;21.006;2022-12-29T21:01:48;16.90;;;7.45;;
22223;SDS011;11281;52.194;21.006;2022-12-29T21:06:09;12.70;;;6.43;;
22223;SDS011;11281;52.194;21.006;2022-12-29T21:10:32;13.30;;;7.05;;
22223;SDS011;11281;52.194;21.006;2022-12-29T21:14:54;12.45;;;7.53;;
22223;SDS011;11281;52.194;21.006;2022-12-29T21:19:16;16.65;;;8.30;;
22223;SDS011;11281;52.194;21.006;2022-12-29T21:23:38;17.45;;;8.50;;
22223;SDS011;11281;52.194;21.006;2022-12-29T21:28:00;15.18;;;7.88;;
22223;SDS011;11281;52.194;21.006;2022-12-29T21:32:29;20.77;;;8.52;;
22223;SDS011;11281;52.194;21.006;2022-12-29T21:36:50;13.93;;;7.28;;
22223;SDS011;11281;52.194;21.006;2022-12-29T21:41:13;15.77;;;7.22;;
22223;SDS011;11281;52.194;21.006;2022-12-29T21:45:37;15.02;;;8.32;;
22223;SDS011;11281;52.194;21.006;2022-12-29T21:49:59;15.23;;;6.82;;
22223;SDS011;11281;52.194;21.006;2022-12-29T21:54:24;12.65;;;6.82;;
22223;SDS011;11281;52.194;21.006;2022-12-29T21:59:07;13.90;;;8.07;;
22223;SDS011;11281;52.194;21.006;2022-12-29T22:03:47;13.07;;;6.85;;
22223;SDS011;11281;52.194;21.006;2022-12-29T22:08:27;13.23;;;6.72;;
22223;SDS011;11281;52.194;21.006;2022-12-29T22:13:07;15.30;;;6.70;;
22223;SDS011;11281;52.194;21.006;2022-12-29T22:17:29;15.73;;;7.47;;
22223;SDS011;11281;52.194;21.006;2022-12-29T22:21:51;14.82;;;7.93;;
22223;SDS011;11281;52.194;21.006;2022-12-29T22:26:13;17.00;;;7.30;;
22223;SDS011;11281;52.194;21.006;2022-12-29T22:30:36;14.50;;;7.43;;
22223;SDS011;11281;52.194;21.006;2022-12-29T22:34:58;15.93;;;8.02;;
22223;SDS011;11281;52.194;21.006;2022-12-29T22:39:19;14.57;;;7.78;;
22223;SDS011;11281;52.194;21.006;2022-12-29T22:43:41;16.85;;;7.65;;
22223;SDS011;11281;52.194;21.006;2022-12-29T22:48:03;15.05;;;8.68;;
22223;SDS011;11281;52.194;21.006;2022-12-29T22:52:26;16.80;;;8.30;;
22223;SDS011;11281;52.194;21.006;2022-12-29T22:56:48;12.70;;;7.00;;
22223;SDS011;11281;52.194;21.006;2022-12-29T23:01:10;13.02;;;6.95;;
22223;SDS011;11281;52.194;21.006;2022-12-29T23:05:34;11.80;;;7.32;;
22223;SDS011;11281;52.194;21.006;2022-12-29T23:09:56;17.38;;;8.02;;
22223;SDS011;11281;52.194;21.006;2022-12-29T23:14:18;14.13;;;7.28;;
22223;SDS011;11281;52.194;21.006;2022-12-29T23:18:40;15.45;;;6.22;;
22223;SDS011;11281;52.194;21.006;2022-12-29T23:23:02;15.65;;;7.22;;
22223;SDS011;11281;52.194;21.006;2022-12-29T23:27:24;15.27;;;7.30;;
22223;SDS011;11281;52.194;21.006;2022-12-29T23:31:46;12.82;;;7.13;;
22223;SDS011;11281;52.194;21.006;2022-12-29T23:36:08;13.77;;;6.70;;
22223;SDS011;11281;52.194;21.006;2022-12-29T23:40:30;14.18;;;7.63;;
22223;SDS011;11281;52.194;21.006;2022-12-29T23:44:52;13.52;;;7.03;;
22223;SDS011;11281;52.194;21.006;2022-12-29T23:49:14;10.15;;;6.05;;
22223;SDS011;11281;52.194;21.006;2022-12-29T23:53:36;12.98;;;6.68;;
22223;SDS011;11281;52.194;21.006;2022-12-29T23:58:00;16.10;;;7.10;;
